sensor_id;sensor_type;location;lat;lon;timestamp;P1;durP1;ratioP1;P2;durP2;ratioP2
49422;SDS011;36998;51.974;20.150;2022-09-14T00:00:54;26.27;;;17.33;;
49422;SDS011;36998;51.974;20.150;2022-09-14T00:03:20;29.10;;;18.60;;
49422;SDS011;36998;51.974;20.150;2022-09-14T00:05:45;29.90;;;17.05;;
49422;SDS011;36998;51.974;20.150;2022-09-14T00:08:11;28.77;;;17.60;;
49422;SDS011;36998;51.974;20.150;2022-09-14T00:10:40;34.83;;;20.05;;
49422;SDS011;36998;51.974;20.150;2022-09-14T00:13:10;30.60;;;18.67;;
49422;SDS011;36998;51.974;20.150;2022-09-14T00:15:37;34.67;;;20.17;;
49422;SDS011;36998;51.974;20.150;2022-09-14T00:18:05;34.25;;;19.88;;
49422;SDS011;36998;51.974;20.150;2022-09-14T00:20:31;33.35;;;19.80;;
49422;SDS011;36998;51.974;20.150;2022-09-14T00:22:58;36.42;;;20.65;;
49422;SDS011;36998;51.974;20.150;2022-09-14T00:25:24;34.17;;;20.85;;
49422;SDS011;36998;51.974;20.150;2022-09-14T00:27:51;35.50;;;22.40;;
49422;SDS011;36998;51.974;20.150;2022-09-14T00:30:17;34.58;;;20.17;;
49422;SDS011;36998;51.974;20.150;2022-09-14T00:32:43;36.80;;;21.02;;
49422;SDS011;36998;51.974;20.150;2022-09-14T00:35:08;30.85;;;19.35;;
49422;SDS011;36998;51.974;20.150;2022-09-14T00:37:34;30.95;;;18.05;;
49422;SDS011;36998;51.974;20.150;2022-09-14T00:39:59;31.42;;;18.02;;
49422;SDS011;36998;51.974;20.150;2022-09-14T00:42:25;31.40;;;19.45;;
49422;SDS011;36998;51.974;20.150;2022-09-14T00:47:16;32.45;;;18.95;;
49422;SDS011;36998;51.974;20.150;2022-09-14T00:49:43;33.20;;;20.35;;
49422;SDS011;36998;51.974;20.150;2022-09-14T00:54:50;33.17;;;19.90;;
49422;SDS011;36998;51.974;20.150;2022-09-14T00:57:18;35.08;;;21.40;;
49422;SDS011;36998;51.974;20.150;2022-09-14T00:59:45;32.53;;;20.23;;
49422;SDS011;36998;51.974;20.150;2022-09-14T01:02:14;34.35;;;22.45;;
49422;SDS011;36998;51.974;20.150;2022-09-14T01:04:40;45.72;;;23.08;;
49422;SDS011;36998;51.974;20.150;2022-09-14T01:12:50;53.42;;;26.95;;
49422;SDS011;36998;51.974;20.150;2022-09-14T01:15:28;55.53;;;27.10;;
49422;SDS011;36998;51.974;20.150;2022-09-14T01:18:20;53.75;;;25.48;;
49422;SDS011;36998;51.974;20.150;2022-09-14T01:21:00;61.97;;;26.77;;
49422;SDS011;36998;51.974;20.150;2022-09-14T01:23:40;61.65;;;27.85;;
49422;SDS011;36998;51.974;20.150;2022-09-14T01:28:39;61.28;;;28.02;;
49422;SDS011;36998;51.974;20.150;2022-09-14T01:31:12;66.43;;;29.17;;
49422;SDS011;36998;51.974;20.150;2022-09-14T01:36:33;62.25;;;27.08;;
49422;SDS011;36998;51.974;20.150;2022-09-14T01:39:01;66.45;;;29.05;;
49422;SDS011;36998;51.974;20.150;2022-09-14T01:41:28;69.03;;;29.95;;
49422;SDS011;36998;51.974;20.150;2022-09-14T01:43:58;85.68;;;32.30;;
49422;SDS011;36998;51.974;20.150;2022-09-14T01:46:40;76.97;;;30.38;;
49422;SDS011;36998;51.974;20.150;2022-09-14T01:52:04;93.60;;;35.28;;
49422;SDS011;36998;51.974;20.150;2022-09-14T01:54:42;90.60;;;35.67;;
49422;SDS011;36998;51.974;20.150;2022-09-14T01:57:33;100.60;;;38.20;;
49422;SDS011;36998;51.974;20.150;2022-09-14T02:00:03;107.80;;;38.43;;
49422;SDS011;36998;51.974;20.150;2022-09-14T02:02:33;107.05;;;40.05;;
49422;SDS011;36998;51.974;20.150;2022-09-14T02:05:06;117.47;;;42.13;;
49422;SDS011;36998;51.974;20.150;2022-09-14T02:07:33;125.38;;;42.30;;
49422;SDS011;36998;51.974;20.150;2022-09-14T02:09:59;117.75;;;41.83;;
49422;SDS011;36998;51.974;20.150;2022-09-14T02:12:27;123.60;;;42.22;;
49422;SDS011;36998;51.974;20.150;2022-09-14T02:14:53;132.57;;;42.90;;
49422;SDS011;36998;51.974;20.150;2022-09-14T02:17:19;130.23;;;43.17;;
49422;SDS011;36998;51.974;20.150;2022-09-14T02:19:53;127.93;;;41.72;;
49422;SDS011;36998;51.974;20.150;2022-09-14T02:22:22;135.43;;;45.30;;
49422;SDS011;36998;51.974;20.150;2022-09-14T02:24:50;136.88;;;42.20;;
49422;SDS011;36998;51.974;20.150;2022-09-14T02:27:16;131.52;;;43.22;;
49422;SDS011;36998;51.974;20.150;2022-09-14T02:29:41;152.18;;;45.75;;
49422;SDS011;36998;51.974;20.150;2022-09-14T02:32:29;155.10;;;44.47;;
49422;SDS011;36998;51.974;20.150;2022-09-14T02:35:21;146.95;;;43.60;;
49422;SDS011;36998;51.974;20.150;2022-09-14T02:41:16;152.68;;;43.63;;
49422;SDS011;36998;51.974;20.150;2022-09-14T02:43:57;148.18;;;43.55;;
49422;SDS011;36998;51.974;20.150;2022-09-14T02:46:34;161.35;;;45.28;;
49422;SDS011;36998;51.974;20.150;2022-09-14T02:49:26;160.43;;;45.08;;
49422;SDS011;36998;51.974;20.150;2022-09-14T02:52:06;148.55;;;45.08;;
49422;SDS011;36998;51.974;20.150;2022-09-14T02:54:42;160.25;;;45.20;;
49422;SDS011;36998;51.974;20.150;2022-09-14T02:57:16;154.63;;;44.40;;
49422;SDS011;36998;51.974;20.150;2022-09-14T02:59:41;158.45;;;46.10;;
49422;SDS011;36998;51.974;20.150;2022-09-14T03:02:07;182.75;;;47.60;;
49422;SDS011;36998;51.974;20.150;2022-09-14T03:04:32;174.05;;;48.08;;
49422;SDS011;36998;51.974;20.150;2022-09-14T03:06:58;160.18;;;47.00;;
49422;SDS011;36998;51.974;20.150;2022-09-14T03:09:23;176.45;;;47.30;;
49422;SDS011;36998;51.974;20.150;2022-09-14T03:11:49;188.00;;;49.65;;
49422;SDS011;36998;51.974;20.150;2022-09-14T03:14:14;192.27;;;49.88;;
49422;SDS011;36998;51.974;20.150;2022-09-14T03:16:40;189.43;;;49.55;;
49422;SDS011;36998;51.974;20.150;2022-09-14T03:19:05;188.95;;;50.92;;
49422;SDS011;36998;51.974;20.150;2022-09-14T03:21:31;189.82;;;47.28;;
49422;SDS011;36998;51.974;20.150;2022-09-14T03:23:56;176.38;;;47.17;;
49422;SDS011;36998;51.974;20.150;2022-09-14T03:26:23;179.60;;;47.53;;
49422;SDS011;36998;51.974;20.150;2022-09-14T03:28:55;160.35;;;46.30;;
49422;SDS011;36998;51.974;20.150;2022-09-14T03:31:23;162.35;;;43.97;;
49422;SDS011;36998;51.974;20.150;2022-09-14T03:33:53;158.90;;;43.17;;
49422;SDS011;36998;51.974;20.150;2022-09-14T03:36:21;157.60;;;40.80;;
49422;SDS011;36998;51.974;20.150;2022-09-14T03:38:48;180.73;;;43.45;;
49422;SDS011;36998;51.974;20.150;2022-09-14T03:41:15;162.82;;;43.97;;
49422;SDS011;36998;51.974;20.150;2022-09-14T03:43:41;182.80;;;45.47;;
49422;SDS011;36998;51.974;20.150;2022-09-14T03:46:17;160.82;;;42.70;;
49422;SDS011;36998;51.974;20.150;2022-09-14T03:48:45;188.88;;;45.67;;
49422;SDS011;36998;51.974;20.150;2022-09-14T03:51:11;191.77;;;45.72;;
49422;SDS011;36998;51.974;20.150;2022-09-14T03:53:38;188.20;;;45.45;;
49422;SDS011;36998;51.974;20.150;2022-09-14T03:56:05;184.27;;;46.10;;
49422;SDS011;36998;51.974;20.150;2022-09-14T03:58:35;195.77;;;44.92;;
49422;SDS011;36998;51.974;20.150;2022-09-14T04:01:07;201.52;;;47.35;;
49422;SDS011;36998;51.974;20.150;2022-09-14T04:03:35;204.20;;;46.60;;
49422;SDS011;36998;51.974;20.150;2022-09-14T04:06:01;197.35;;;47.33;;
49422;SDS011;36998;51.974;20.150;2022-09-14T04:08:34;233.80;;;49.22;;
49422;SDS011;36998;51.974;20.150;2022-09-14T04:11:17;221.88;;;49.38;;
49422;SDS011;36998;51.974;20.150;2022-09-14T04:13:44;210.43;;;46.90;;
49422;SDS011;36998;51.974;20.150;2022-09-14T04:16:10;211.32;;;46.65;;
49422;SDS011;36998;51.974;20.150;2022-09-14T04:18:36;219.05;;;47.20;;
49422;SDS011;36998;51.974;20.150;2022-09-14T04:21:03;203.75;;;48.13;;
49422;SDS011;36998;51.974;20.150;2022-09-14T04:23:30;201.05;;;48.08;;
49422;SDS011;36998;51.974;20.150;2022-09-14T04:25:57;207.90;;;45.58;;
49422;SDS011;36998;51.974;20.150;2022-09-14T04:28:23;198.60;;;47.50;;
49422;SDS011;36998;51.974;20.150;2022-09-14T04:30:58;211.68;;;44.78;;
49422;SDS011;36998;51.974;20.150;2022-09-14T04:33:28;197.30;;;45.15;;
49422;SDS011;36998;51.974;20.150;2022-09-14T04:36:03;214.38;;;47.00;;
49422;SDS011;36998;51.974;20.150;2022-09-14T04:38:33;197.45;;;45.65;;
49422;SDS011;36998;51.974;20.150;2022-09-14T04:41:02;188.90;;;47.47;;
49422;SDS011;36998;51.974;20.150;2022-09-14T04:43:29;172.27;;;43.35;;
49422;SDS011;36998;51.974;20.150;2022-09-14T04:46:00;136.50;;;38.35;;
49422;SDS011;36998;51.974;20.150;2022-09-14T04:48:27;150.43;;;43.65;;
49422;SDS011;36998;51.974;20.150;2022-09-14T04:50:53;146.35;;;41.22;;
49422;SDS011;36998;51.974;20.150;2022-09-14T04:53:18;144.70;;;44.30;;
49422;SDS011;36998;51.974;20.150;2022-09-14T04:55:44;141.35;;;42.53;;
49422;SDS011;36998;51.974;20.150;2022-09-14T04:58:09;119.32;;;39.28;;
49422;SDS011;36998;51.974;20.150;2022-09-14T05:00:35;99.25;;;36.25;;
49422;SDS011;36998;51.974;20.150;2022-09-14T05:03:01;112.78;;;41.67;;
49422;SDS011;36998;51.974;20.150;2022-09-14T05:05:28;113.32;;;39.92;;
49422;SDS011;36998;51.974;20.150;2022-09-14T05:07:53;87.55;;;36.50;;
49422;SDS011;36998;51.974;20.150;2022-09-14T05:10:18;93.82;;;39.30;;
49422;SDS011;36998;51.974;20.150;2022-09-14T05:12:44;80.78;;;33.85;;
49422;SDS011;36998;51.974;20.150;2022-09-14T05:15:09;95.15;;;38.10;;
49422;SDS011;36998;51.974;20.150;2022-09-14T05:17:35;86.40;;;35.55;;
49422;SDS011;36998;51.974;20.150;2022-09-14T05:20:01;73.38;;;33.17;;
49422;SDS011;36998;51.974;20.150;2022-09-14T05:22:27;75.03;;;33.85;;
49422;SDS011;36998;51.974;20.150;2022-09-14T05:24:53;70.68;;;31.65;;
49422;SDS011;36998;51.974;20.150;2022-09-14T05:27:18;66.45;;;33.08;;
49422;SDS011;36998;51.974;20.150;2022-09-14T05:29:43;63.55;;;30.60;;
49422;SDS011;36998;51.974;20.150;2022-09-14T05:32:09;58.78;;;30.58;;
49422;SDS011;36998;51.974;20.150;2022-09-14T05:34:34;61.15;;;29.65;;
49422;SDS011;36998;51.974;20.150;2022-09-14T05:37:00;51.55;;;25.98;;
49422;SDS011;36998;51.974;20.150;2022-09-14T05:39:26;54.00;;;27.58;;
49422;SDS011;36998;51.974;20.150;2022-09-14T05:41:51;51.92;;;28.30;;
49422;SDS011;36998;51.974;20.150;2022-09-14T05:44:17;45.20;;;24.50;;
49422;SDS011;36998;51.974;20.150;2022-09-14T05:46:42;53.22;;;26.80;;
49422;SDS011;36998;51.974;20.150;2022-09-14T05:49:08;60.13;;;32.33;;
49422;SDS011;36998;51.974;20.150;2022-09-14T05:51:33;54.78;;;27.80;;
49422;SDS011;36998;51.974;20.150;2022-09-14T05:53:59;56.67;;;25.73;;
49422;SDS011;36998;51.974;20.150;2022-09-14T05:56:28;45.08;;;22.95;;
49422;SDS011;36998;51.974;20.150;2022-09-14T05:58:55;48.42;;;24.50;;
49422;SDS011;36998;51.974;20.150;2022-09-14T06:01:26;49.63;;;24.95;;
49422;SDS011;36998;51.974;20.150;2022-09-14T06:03:54;46.65;;;23.33;;
49422;SDS011;36998;51.974;20.150;2022-09-14T06:06:21;49.03;;;25.20;;
49422;SDS011;36998;51.974;20.150;2022-09-14T06:08:47;45.55;;;22.60;;
49422;SDS011;36998;51.974;20.150;2022-09-14T06:11:17;45.72;;;23.88;;
49422;SDS011;36998;51.974;20.150;2022-09-14T06:13:44;42.13;;;21.92;;
49422;SDS011;36998;51.974;20.150;2022-09-14T06:16:11;43.80;;;20.67;;
49422;SDS011;36998;51.974;20.150;2022-09-14T06:18:42;42.10;;;21.35;;
49422;SDS011;36998;51.974;20.150;2022-09-14T06:21:08;45.25;;;22.50;;
49422;SDS011;36998;51.974;20.150;2022-09-14T06:23:35;43.05;;;22.17;;
49422;SDS011;36998;51.974;20.150;2022-09-14T06:26:02;49.50;;;23.88;;
49422;SDS011;36998;51.974;20.150;2022-09-14T06:28:29;40.95;;;20.83;;
49422;SDS011;36998;51.974;20.150;2022-09-14T06:30:55;36.10;;;18.38;;
49422;SDS011;36998;51.974;20.150;2022-09-14T06:33:20;33.58;;;17.42;;
49422;SDS011;36998;51.974;20.150;2022-09-14T06:35:53;35.67;;;19.05;;
49422;SDS011;36998;51.974;20.150;2022-09-14T06:38:19;27.52;;;14.52;;
49422;SDS011;36998;51.974;20.150;2022-09-14T06:40:52;27.88;;;15.73;;
49422;SDS011;36998;51.974;20.150;2022-09-14T06:43:21;32.47;;;16.88;;
49422;SDS011;36998;51.974;20.150;2022-09-14T06:45:58;38.55;;;20.77;;
49422;SDS011;36998;51.974;20.150;2022-09-14T06:51:18;23.15;;;10.90;;
49422;SDS011;36998;51.974;20.150;2022-09-14T06:53:46;25.45;;;12.95;;
49422;SDS011;36998;51.974;20.150;2022-09-14T06:56:12;25.67;;;12.15;;
49422;SDS011;36998;51.974;20.150;2022-09-14T06:58:38;25.13;;;14.23;;
49422;SDS011;36998;51.974;20.150;2022-09-14T07:01:05;25.08;;;14.13;;
49422;SDS011;36998;51.974;20.150;2022-09-14T07:03:35;26.00;;;14.35;;
49422;SDS011;36998;51.974;20.150;2022-09-14T07:06:09;27.25;;;14.60;;
49422;SDS011;36998;51.974;20.150;2022-09-14T07:08:37;26.17;;;13.30;;
49422;SDS011;36998;51.974;20.150;2022-09-14T07:11:03;21.55;;;12.75;;
49422;SDS011;36998;51.974;20.150;2022-09-14T07:13:29;25.50;;;13.88;;
49422;SDS011;36998;51.974;20.150;2022-09-14T07:15:55;20.35;;;11.82;;
49422;SDS011;36998;51.974;20.150;2022-09-14T07:18:21;22.08;;;12.77;;
49422;SDS011;36998;51.974;20.150;2022-09-14T07:20:52;22.38;;;12.68;;
49422;SDS011;36998;51.974;20.150;2022-09-14T07:23:19;28.85;;;12.48;;
49422;SDS011;36998;51.974;20.150;2022-09-14T07:25:44;21.95;;;12.43;;
49422;SDS011;36998;51.974;20.150;2022-09-14T07:28:10;26.35;;;11.63;;
49422;SDS011;36998;51.974;20.150;2022-09-14T07:30:35;20.27;;;11.07;;
49422;SDS011;36998;51.974;20.150;2022-09-14T07:33:02;20.65;;;11.45;;
49422;SDS011;36998;51.974;20.150;2022-09-14T07:35:29;19.02;;;9.63;;
49422;SDS011;36998;51.974;20.150;2022-09-14T07:37:55;16.25;;;10.90;;
49422;SDS011;36998;51.974;20.150;2022-09-14T07:40:20;23.63;;;12.07;;
49422;SDS011;36998;51.974;20.150;2022-09-14T07:42:50;21.77;;;12.05;;
49422;SDS011;36998;51.974;20.150;2022-09-14T07:45:16;19.08;;;11.18;;
49422;SDS011;36998;51.974;20.150;2022-09-14T07:47:42;19.85;;;11.57;;
49422;SDS011;36998;51.974;20.150;2022-09-14T07:50:09;19.67;;;9.32;;
49422;SDS011;36998;51.974;20.150;2022-09-14T07:52:34;15.07;;;8.73;;
49422;SDS011;36998;51.974;20.150;2022-09-14T07:55:00;22.08;;;12.52;;
49422;SDS011;36998;51.974;20.150;2022-09-14T07:57:25;13.85;;;7.00;;
49422;SDS011;36998;51.974;20.150;2022-09-14T07:59:51;18.42;;;7.85;;
49422;SDS011;36998;51.974;20.150;2022-09-14T08:02:17;16.73;;;8.75;;
49422;SDS011;36998;51.974;20.150;2022-09-14T08:04:43;14.50;;;8.55;;
49422;SDS011;36998;51.974;20.150;2022-09-14T08:07:08;18.73;;;9.82;;
49422;SDS011;36998;51.974;20.150;2022-09-14T08:09:36;15.50;;;8.63;;
49422;SDS011;36998;51.974;20.150;2022-09-14T08:12:02;15.65;;;8.90;;
49422;SDS011;36998;51.974;20.150;2022-09-14T08:14:29;17.02;;;8.55;;
49422;SDS011;36998;51.974;20.150;2022-09-14T08:16:55;15.43;;;9.27;;
49422;SDS011;36998;51.974;20.150;2022-09-14T08:19:20;18.50;;;9.25;;
49422;SDS011;36998;51.974;20.150;2022-09-14T08:21:46;17.35;;;8.75;;
49422;SDS011;36998;51.974;20.150;2022-09-14T08:24:12;15.27;;;7.10;;
49422;SDS011;36998;51.974;20.150;2022-09-14T08:29:07;12.10;;;5.65;;
49422;SDS011;36998;51.974;20.150;2022-09-14T08:31:35;12.80;;;5.82;;
49422;SDS011;36998;51.974;20.150;2022-09-14T08:34:03;10.43;;;5.10;;
49422;SDS011;36998;51.974;20.150;2022-09-14T08:36:30;11.60;;;5.40;;
49422;SDS011;36998;51.974;20.150;2022-09-14T08:38:57;14.98;;;6.72;;
49422;SDS011;36998;51.974;20.150;2022-09-14T08:44:16;10.95;;;4.88;;
49422;SDS011;36998;51.974;20.150;2022-09-14T08:46:57;9.18;;;5.43;;
49422;SDS011;36998;51.974;20.150;2022-09-14T08:52:30;9.00;;;4.93;;
49422;SDS011;36998;51.974;20.150;2022-09-14T08:54:59;14.35;;;5.10;;
49422;SDS011;36998;51.974;20.150;2022-09-14T08:57:42;12.65;;;3.92;;
49422;SDS011;36998;51.974;20.150;2022-09-14T09:00:16;9.57;;;4.28;;
49422;SDS011;36998;51.974;20.150;2022-09-14T09:03:23;15.30;;;5.25;;
49422;SDS011;36998;51.974;20.150;2022-09-14T09:06:15;11.38;;;4.25;;
49422;SDS011;36998;51.974;20.150;2022-09-14T09:08:55;10.80;;;4.18;;
49422;SDS011;36998;51.974;20.150;2022-09-14T09:11:34;9.57;;;3.97;;
49422;SDS011;36998;51.974;20.150;2022-09-14T09:14:06;8.85;;;3.85;;
49422;SDS011;36998;51.974;20.150;2022-09-14T09:17:01;9.68;;;3.67;;
49422;SDS011;36998;51.974;20.150;2022-09-14T09:19:37;6.53;;;3.35;;
49422;SDS011;36998;51.974;20.150;2022-09-14T09:22:11;7.93;;;3.20;;
49422;SDS011;36998;51.974;20.150;2022-09-14T09:24:41;6.63;;;3.08;;
49422;SDS011;36998;51.974;20.150;2022-09-14T09:27:11;8.23;;;2.80;;
49422;SDS011;36998;51.974;20.150;2022-09-14T09:29:38;5.25;;;3.30;;
49422;SDS011;36998;51.974;20.150;2022-09-14T09:32:19;6.95;;;3.10;;
49422;SDS011;36998;51.974;20.150;2022-09-14T09:35:05;7.72;;;2.83;;
49422;SDS011;36998;51.974;20.150;2022-09-14T09:37:45;6.53;;;3.10;;
49422;SDS011;36998;51.974;20.150;2022-09-14T09:40:15;8.63;;;2.97;;
49422;SDS011;36998;51.974;20.150;2022-09-14T09:48:15;5.72;;;2.45;;
49422;SDS011;36998;51.974;20.150;2022-09-14T09:53:33;2.95;;;1.13;;
49422;SDS011;36998;51.974;20.150;2022-09-14T09:56:00;5.50;;;1.40;;
49422;SDS011;36998;51.974;20.150;2022-09-14T09:58:28;4.57;;;1.20;;
49422;SDS011;36998;51.974;20.150;2022-09-14T10:01:17;3.72;;;1.88;;
49422;SDS011;36998;51.974;20.150;2022-09-14T10:06:43;5.28;;;1.60;;
49422;SDS011;36998;51.974;20.150;2022-09-14T10:09:13;4.90;;;1.45;;
49422;SDS011;36998;51.974;20.150;2022-09-14T10:11:41;1.75;;;1.30;;
49422;SDS011;36998;51.974;20.150;2022-09-14T10:14:25;4.03;;;1.67;;
49422;SDS011;36998;51.974;20.150;2022-09-14T10:17:02;4.70;;;1.67;;
49422;SDS011;36998;51.974;20.150;2022-09-14T10:19:49;2.80;;;1.50;;
49422;SDS011;36998;51.974;20.150;2022-09-14T10:25:40;3.72;;;1.30;;
49422;SDS011;36998;51.974;20.150;2022-09-14T10:27:56;4.82;;;1.50;;
49422;SDS011;36998;51.974;20.150;2022-09-14T10:30:28;6.88;;;1.95;;
49422;SDS011;36998;51.974;20.150;2022-09-14T10:35:47;3.53;;;1.63;;
49422;SDS011;36998;51.974;20.150;2022-09-14T10:38:24;2.42;;;1.35;;
49422;SDS011;36998;51.974;20.150;2022-09-14T10:41:11;3.40;;;1.40;;
49422;SDS011;36998;51.974;20.150;2022-09-14T10:46:39;7.05;;;1.55;;
49422;SDS011;36998;51.974;20.150;2022-09-14T10:52:24;4.13;;;1.60;;
49422;SDS011;36998;51.974;20.150;2022-09-14T11:00:20;4.07;;;1.77;;
49422;SDS011;36998;51.974;20.150;2022-09-14T11:02:48;2.00;;;1.40;;
49422;SDS011;36998;51.974;20.150;2022-09-14T11:08:14;2.53;;;1.52;;
49422;SDS011;36998;51.974;20.150;2022-09-14T11:13:55;4.03;;;1.50;;
49422;SDS011;36998;51.974;20.150;2022-09-14T11:19:25;5.82;;;1.10;;
49422;SDS011;36998;51.974;20.150;2022-09-14T11:25:44;4.10;;;1.30;;
49422;SDS011;36998;51.974;20.150;2022-09-14T11:28:33;3.83;;;1.55;;
49422;SDS011;36998;51.974;20.150;2022-09-14T11:31:06;2.58;;;1.45;;
49422;SDS011;36998;51.974;20.150;2022-09-14T11:33:43;2.83;;;1.30;;
49422;SDS011;36998;51.974;20.150;2022-09-14T11:36:18;5.80;;;1.40;;
49422;SDS011;36998;51.974;20.150;2022-09-14T11:38:52;3.40;;;1.27;;
49422;SDS011;36998;51.974;20.150;2022-09-14T11:44:03;3.20;;;1.27;;
49422;SDS011;36998;51.974;20.150;2022-09-14T11:46:45;2.33;;;1.00;;
49422;SDS011;36998;51.974;20.150;2022-09-14T11:49:27;3.22;;;1.10;;
49422;SDS011;36998;51.974;20.150;2022-09-14T11:52:08;3.38;;;1.17;;
49422;SDS011;36998;51.974;20.150;2022-09-14T11:54:40;0.98;;;0.80;;
49422;SDS011;36998;51.974;20.150;2022-09-14T11:57:06;5.28;;;1.02;;
49422;SDS011;36998;51.974;20.150;2022-09-14T12:23:17;3.35;;;1.08;;
49422;SDS011;36998;51.974;20.150;2022-09-14T12:25:53;2.67;;;1.60;;
49422;SDS011;36998;51.974;20.150;2022-09-14T12:28:45;2.42;;;1.20;;
49422;SDS011;36998;51.974;20.150;2022-09-14T12:31:28;1.92;;;0.98;;
49422;SDS011;36998;51.974;20.150;2022-09-14T12:34:04;3.20;;;1.30;;
49422;SDS011;36998;51.974;20.150;2022-09-14T12:39:05;4.97;;;1.20;;
49422;SDS011;36998;51.974;20.150;2022-09-14T12:44:29;5.53;;;1.50;;
49422;SDS011;36998;51.974;20.150;2022-09-14T12:47:57;1.85;;;1.13;;
49422;SDS011;36998;51.974;20.150;2022-09-14T12:50:19;3.35;;;1.40;;
49422;SDS011;36998;51.974;20.150;2022-09-14T12:53:05;2.03;;;1.08;;
49422;SDS011;36998;51.974;20.150;2022-09-14T12:56:01;5.88;;;1.30;;
49422;SDS011;36998;51.974;20.150;2022-09-14T13:01:24;3.67;;;1.30;;
49422;SDS011;36998;51.974;20.150;2022-09-14T13:03:56;2.40;;;1.35;;
49422;SDS011;36998;51.974;20.150;2022-09-14T13:06:23;4.07;;;1.10;;
49422;SDS011;36998;51.974;20.150;2022-09-14T13:08:54;2.33;;;1.27;;
49422;SDS011;36998;51.974;20.150;2022-09-14T13:11:25;2.88;;;1.20;;
49422;SDS011;36998;51.974;20.150;2022-09-14T13:13:55;28.27;;;3.47;;
49422;SDS011;36998;51.974;20.150;2022-09-14T13:19:17;2.53;;;1.20;;
49422;SDS011;36998;51.974;20.150;2022-09-14T13:21:46;3.00;;;1.20;;
49422;SDS011;36998;51.974;20.150;2022-09-14T13:24:27;5.95;;;1.45;;
49422;SDS011;36998;51.974;20.150;2022-09-14T13:26:59;3.97;;;1.70;;
49422;SDS011;36998;51.974;20.150;2022-09-14T13:29:26;2.53;;;1.27;;
49422;SDS011;36998;51.974;20.150;2022-09-14T13:32:16;4.30;;;1.25;;
49422;SDS011;36998;51.974;20.150;2022-09-14T13:37:13;1.77;;;0.98;;
49422;SDS011;36998;51.974;20.150;2022-09-14T13:39:40;3.03;;;1.20;;
49422;SDS011;36998;51.974;20.150;2022-09-14T13:42:06;3.47;;;1.45;;
49422;SDS011;36998;51.974;20.150;2022-09-14T13:44:40;2.08;;;1.00;;
49422;SDS011;36998;51.974;20.150;2022-09-14T13:47:20;2.35;;;1.30;;
49422;SDS011;36998;51.974;20.150;2022-09-14T13:49:48;5.13;;;1.17;;
49422;SDS011;36998;51.974;20.150;2022-09-14T13:52:16;3.92;;;1.45;;
49422;SDS011;36998;51.974;20.150;2022-09-14T13:55:08;3.00;;;1.55;;
49422;SDS011;36998;51.974;20.150;2022-09-14T13:57:36;3.80;;;1.73;;
49422;SDS011;36998;51.974;20.150;2022-09-14T14:00:22;2.15;;;1.13;;
49422;SDS011;36998;51.974;20.150;2022-09-14T14:02:48;4.40;;;2.00;;
49422;SDS011;36998;51.974;20.150;2022-09-14T14:05:19;4.70;;;2.00;;
49422;SDS011;36998;51.974;20.150;2022-09-14T14:07:49;4.22;;;1.65;;
49422;SDS011;36998;51.974;20.150;2022-09-14T14:10:33;5.82;;;1.90;;
49422;SDS011;36998;51.974;20.150;2022-09-14T14:13:02;5.30;;;1.30;;
49422;SDS011;36998;51.974;20.150;2022-09-14T14:21:38;2.60;;;1.45;;
49422;SDS011;36998;51.974;20.150;2022-09-14T14:24:17;2.42;;;1.33;;
49422;SDS011;36998;51.974;20.150;2022-09-14T14:26:51;2.00;;;1.15;;
49422;SDS011;36998;51.974;20.150;2022-09-14T14:29:21;3.03;;;1.25;;
49422;SDS011;36998;51.974;20.150;2022-09-14T14:31:47;1.48;;;1.10;;
49422;SDS011;36998;51.974;20.150;2022-09-14T14:34:20;5.78;;;1.80;;
49422;SDS011;36998;51.974;20.150;2022-09-14T14:36:54;7.10;;;1.30;;
49422;SDS011;36998;51.974;20.150;2022-09-14T14:39:21;4.03;;;1.58;;
49422;SDS011;36998;51.974;20.150;2022-09-14T14:41:48;2.47;;;1.48;;
49422;SDS011;36998;51.974;20.150;2022-09-14T14:44:17;2.40;;;0.93;;
49422;SDS011;36998;51.974;20.150;2022-09-14T14:46:45;2.15;;;1.38;;
49422;SDS011;36998;51.974;20.150;2022-09-14T14:49:11;4.10;;;1.30;;
49422;SDS011;36998;51.974;20.150;2022-09-14T14:51:38;3.38;;;1.23;;
49422;SDS011;36998;51.974;20.150;2022-09-14T14:54:04;2.17;;;1.23;;
49422;SDS011;36998;51.974;20.150;2022-09-14T14:56:30;3.53;;;1.52;;
49422;SDS011;36998;51.974;20.150;2022-09-14T14:58:59;3.33;;;1.55;;
49422;SDS011;36998;51.974;20.150;2022-09-14T15:02:00;2.28;;;1.58;;
49422;SDS011;36998;51.974;20.150;2022-09-14T15:04:25;6.03;;;1.60;;
49422;SDS011;36998;51.974;20.150;2022-09-14T15:06:51;4.35;;;1.60;;
49422;SDS011;36998;51.974;20.150;2022-09-14T15:09:21;6.20;;;1.55;;
49422;SDS011;36998;51.974;20.150;2022-09-14T15:11:48;10.80;;;2.75;;
49422;SDS011;36998;51.974;20.150;2022-09-14T15:14:16;4.60;;;1.98;;
49422;SDS011;36998;51.974;20.150;2022-09-14T15:17:03;4.82;;;1.60;;
49422;SDS011;36998;51.974;20.150;2022-09-14T15:19:29;5.75;;;2.33;;
49422;SDS011;36998;51.974;20.150;2022-09-14T15:21:54;5.53;;;1.80;;
49422;SDS011;36998;51.974;20.150;2022-09-14T15:24:20;3.53;;;1.80;;
49422;SDS011;36998;51.974;20.150;2022-09-14T15:26:45;5.43;;;1.75;;
49422;SDS011;36998;51.974;20.150;2022-09-14T15:29:11;5.05;;;1.20;;
49422;SDS011;36998;51.974;20.150;2022-09-14T15:31:42;10.07;;;1.67;;
49422;SDS011;36998;51.974;20.150;2022-09-14T15:34:08;4.85;;;1.38;;
49422;SDS011;36998;51.974;20.150;2022-09-14T15:39:19;2.50;;;1.02;;
49422;SDS011;36998;51.974;20.150;2022-09-14T15:41:49;3.63;;;1.50;;
49422;SDS011;36998;51.974;20.150;2022-09-14T15:44:18;7.53;;;1.20;;
49422;SDS011;36998;51.974;20.150;2022-09-14T15:46:44;2.45;;;1.42;;
49422;SDS011;36998;51.974;20.150;2022-09-14T15:49:16;2.63;;;1.70;;
49422;SDS011;36998;51.974;20.150;2022-09-14T15:51:44;9.10;;;1.88;;
49422;SDS011;36998;51.974;20.150;2022-09-14T15:54:11;2.45;;;1.23;;
49422;SDS011;36998;51.974;20.150;2022-09-14T15:56:37;4.15;;;1.65;;
49422;SDS011;36998;51.974;20.150;2022-09-14T15:59:03;7.78;;;1.48;;
49422;SDS011;36998;51.974;20.150;2022-09-14T16:01:28;2.78;;;1.42;;
49422;SDS011;36998;51.974;20.150;2022-09-14T16:03:58;4.57;;;1.70;;
49422;SDS011;36998;51.974;20.150;2022-09-14T16:06:29;5.50;;;1.17;;
49422;SDS011;36998;51.974;20.150;2022-09-14T16:08:55;4.97;;;1.55;;
49422;SDS011;36998;51.974;20.150;2022-09-14T16:11:22;7.53;;;1.67;;
49422;SDS011;36998;51.974;20.150;2022-09-14T16:13:48;4.63;;;1.73;;
49422;SDS011;36998;51.974;20.150;2022-09-14T16:16:15;6.25;;;2.10;;
49422;SDS011;36998;51.974;20.150;2022-09-14T16:18:41;8.15;;;2.03;;
49422;SDS011;36998;51.974;20.150;2022-09-14T16:21:11;18.15;;;2.97;;
49422;SDS011;36998;51.974;20.150;2022-09-14T16:23:39;4.03;;;1.77;;
49422;SDS011;36998;51.974;20.150;2022-09-14T16:26:10;3.40;;;1.63;;
49422;SDS011;36998;51.974;20.150;2022-09-14T16:28:41;11.80;;;2.10;;
49422;SDS011;36998;51.974;20.150;2022-09-14T16:31:19;4.80;;;1.80;;
49422;SDS011;36998;51.974;20.150;2022-09-14T16:33:46;6.53;;;2.00;;
49422;SDS011;36998;51.974;20.150;2022-09-14T16:36:14;5.72;;;2.63;;
49422;SDS011;36998;51.974;20.150;2022-09-14T16:38:41;6.45;;;2.05;;
49422;SDS011;36998;51.974;20.150;2022-09-14T16:41:07;9.77;;;3.10;;